sensor_id;sensor_type;location;lat;lon;timestamp;temperature;humidity
46898;DHT22;32646;50.958;6.258;2024-02-04T00:02:01;9.30;99.90
46898;DHT22;32646;50.958;6.258;2024-02-04T00:04:27;9.30;99.90
46898;DHT22;32646;50.958;6.258;2024-02-04T00:06:54;9.30;99.90
46898;DHT22;32646;50.958;6.258;2024-02-04T00:09:21;9.30;99.90
46898;DHT22;32646;50.958;6.258;2024-02-04T00:11:47;9.40;99.90
46898;DHT22;32646;50.958;6.258;2024-02-04T00:14:14;9.30;99.90
46898;DHT22;32646;50.958;6.258;2024-02-04T00:16:41;9.30;99.90
46898;DHT22;32646;50.958;6.258;2024-02-04T00:19:08;9.30;99.90
46898;DHT22;32646;50.958;6.258;2024-02-04T00:21:34;9.30;99.90
46898;DHT22;32646;50.958;6.258;2024-02-04T00:24:01;9.30;99.90
46898;DHT22;32646;50.958;6.258;2024-02-04T00:26:28;9.30;99.90
46898;DHT22;32646;50.958;6.258;2024-02-04T00:28:54;9.30;99.90
46898;DHT22;32646;50.958;6.258;2024-02-04T00:31:21;9.30;99.90
46898;DHT22;32646;50.958;6.258;2024-02-04T00:33:48;9.30;99.90
46898;DHT22;32646;50.958;6.258;2024-02-04T00:36:14;9.30;99.90
46898;DHT22;32646;50.958;6.258;2024-02-04T00:38:41;9.30;99.90
46898;DHT22;32646;50.958;6.258;2024-02-04T00:41:07;9.30;99.90
46898;DHT22;32646;50.958;6.258;2024-02-04T00:43:34;9.30;99.90
46898;DHT22;32646;50.958;6.258;2024-02-04T00:46:01;9.30;99.90
46898;DHT22;32646;50.958;6.258;2024-02-04T00:48:27;9.30;99.90
46898;DHT22;32646;50.958;6.258;2024-02-04T00:50:54;9.30;99.90
46898;DHT22;32646;50.958;6.258;2024-02-04T00:53:21;9.30;99.90
46898;DHT22;32646;50.958;6.258;2024-02-04T00:55:47;9.40;99.90
46898;DHT22;32646;50.958;6.258;2024-02-04T00:58:14;9.30;99.90
46898;DHT22;32646;50.958;6.258;2024-02-04T01:00:41;9.40;99.90
46898;DHT22;32646;50.958;6.258;2024-02-04T01:03:07;9.40;99.90
46898;DHT22;32646;50.958;6.258;2024-02-04T01:05:34;9.40;99.90
46898;DHT22;32646;50.958;6.258;2024-02-04T01:08:01;9.40;99.90
46898;DHT22;32646;50.958;6.258;2024-02-04T01:10:27;9.40;99.90
46898;DHT22;32646;50.958;6.258;2024-02-04T01:12:54;9.40;99.90
46898;DHT22;32646;50.958;6.258;2024-02-04T01:15:20;9.40;99.90
46898;DHT22;32646;50.958;6.258;2024-02-04T01:17:47;9.40;99.90
46898;DHT22;32646;50.958;6.258;2024-02-04T01:20:14;9.40;99.90
46898;DHT22;32646;50.958;6.258;2024-02-04T01:22:40;9.40;99.90
46898;DHT22;32646;50.958;6.258;2024-02-04T01:25:07;9.40;99.90
46898;DHT22;32646;50.958;6.258;2024-02-04T01:27:34;9.40;99.90
46898;DHT22;32646;50.958;6.258;2024-02-04T01:30:01;9.40;99.90
46898;DHT22;32646;50.958;6.258;2024-02-04T01:32:27;9.40;99.90
46898;DHT22;32646;50.958;6.258;2024-02-04T01:34:54;9.40;99.90
46898;DHT22;32646;50.958;6.258;2024-02-04T01:37:21;9.40;99.90
46898;DHT22;32646;50.958;6.258;2024-02-04T01:39:47;9.40;99.90
46898;DHT22;32646;50.958;6.258;2024-02-04T01:42:14;9.40;99.90
46898;DHT22;32646;50.958;6.258;2024-02-04T01:44:41;9.40;99.90
46898;DHT22;32646;50.958;6.258;2024-02-04T01:47:07;9.40;99.90
46898;DHT22;32646;50.958;6.258;2024-02-04T01:49:34;9.50;99.90
46898;DHT22;32646;50.958;6.258;2024-02-04T01:52:02;9.50;99.90
46898;DHT22;32646;50.958;6.258;2024-02-04T01:54:31;9.50;99.90
46898;DHT22;32646;50.958;6.258;2024-02-04T01:56:58;9.50;99.90
46898;DHT22;32646;50.958;6.258;2024-02-04T01:59:25;9.50;99.90
46898;DHT22;32646;50.958;6.258;2024-02-04T02:01:52;9.50;99.90
46898;DHT22;32646;50.958;6.258;2024-02-04T02:04:20;9.50;99.90
46898;DHT22;32646;50.958;6.258;2024-02-04T02:06:48;9.50;99.90
46898;DHT22;32646;50.958;6.258;2024-02-04T02:09:14;9.50;99.90
46898;DHT22;32646;50.958;6.258;2024-02-04T02:11:44;9.50;99.90
46898;DHT22;32646;50.958;6.258;2024-02-04T02:14:13;9.50;99.90
46898;DHT22;32646;50.958;6.258;2024-02-04T02:16:40;9.50;99.90
46898;DHT22;32646;50.958;6.258;2024-02-04T02:19:32;9.50;99.90
46898;DHT22;32646;50.958;6.258;2024-02-04T02:22:36;9.50;99.90
46898;DHT22;32646;50.958;6.258;2024-02-04T02:25:04;9.50;99.90
46898;DHT22;32646;50.958;6.258;2024-02-04T02:27:31;9.50;99.90
46898;DHT22;32646;50.958;6.258;2024-02-04T02:29:58;9.50;99.90
46898;DHT22;32646;50.958;6.258;2024-02-04T02:32:25;9.50;99.90
46898;DHT22;32646;50.958;6.258;2024-02-04T02:34:52;9.50;99.90
46898;DHT22;32646;50.958;6.258;2024-02-04T02:40:29;9.60;99.90
46898;DHT22;32646;50.958;6.258;2024-02-04T02:42:57;9.60;99.90
46898;DHT22;32646;50.958;6.258;2024-02-04T02:45:28;9.60;99.90
46898;DHT22;32646;50.958;6.258;2024-02-04T02:47:56;9.60;99.90
46898;DHT22;32646;50.958;6.258;2024-02-04T02:50:23;9.50;99.90
46898;DHT22;32646;50.958;6.258;2024-02-04T02:52:50;9.60;99.90
46898;DHT22;32646;50.958;6.258;2024-02-04T02:55:17;9.60;99.90
46898;DHT22;32646;50.958;6.258;2024-02-04T02:57:43;9.60;99.90
46898;DHT22;32646;50.958;6.258;2024-02-04T03:00:11;9.60;99.90
46898;DHT22;32646;50.958;6.258;2024-02-04T03:02:37;9.60;99.90
46898;DHT22;32646;50.958;6.258;2024-02-04T03:05:04;9.60;99.90
46898;DHT22;32646;50.958;6.258;2024-02-04T03:07:31;9.60;99.90
46898;DHT22;32646;50.958;6.258;2024-02-04T03:09:57;9.60;99.90
46898;DHT22;32646;50.958;6.258;2024-02-04T03:12:24;9.60;99.90
46898;DHT22;32646;50.958;6.258;2024-02-04T03:14:51;9.60;99.90
46898;DHT22;32646;50.958;6.258;2024-02-04T03:17:18;9.60;99.90
46898;DHT22;32646;50.958;6.258;2024-02-04T03:19:44;9.70;99.90
46898;DHT22;32646;50.958;6.258;2024-02-04T03:22:11;9.70;99.90
46898;DHT22;32646;50.958;6.258;2024-02-04T03:24:37;9.60;99.90
46898;DHT22;32646;50.958;6.258;2024-02-04T03:27:04;9.70;99.90
46898;DHT22;32646;50.958;6.258;2024-02-04T03:29:31;9.70;99.90
46898;DHT22;32646;50.958;6.258;2024-02-04T03:31:57;9.70;99.90
46898;DHT22;32646;50.958;6.258;2024-02-04T03:34:24;9.70;99.90
46898;DHT22;32646;50.958;6.258;2024-02-04T03:36:51;9.70;99.90
46898;DHT22;32646;50.958;6.258;2024-02-04T03:39:18;9.70;99.90
46898;DHT22;32646;50.958;6.258;2024-02-04T03:41:44;9.70;99.90
46898;DHT22;32646;50.958;6.258;2024-02-04T03:44:11;9.70;99.90
46898;DHT22;32646;50.958;6.258;2024-02-04T03:46:37;9.70;99.90
46898;DHT22;32646;50.958;6.258;2024-02-04T03:49:04;9.70;99.90
46898;DHT22;32646;50.958;6.258;2024-02-04T03:51:31;9.70;99.90
46898;DHT22;32646;50.958;6.258;2024-02-04T03:53:57;9.70;99.90
46898;DHT22;32646;50.958;6.258;2024-02-04T03:56:24;9.70;99.90
46898;DHT22;32646;50.958;6.258;2024-02-04T03:58:51;9.70;99.90
46898;DHT22;32646;50.958;6.258;2024-02-04T04:01:18;9.70;99.90
46898;DHT22;32646;50.958;6.258;2024-02-04T04:03:45;9.70;99.90
46898;DHT22;32646;50.958;6.258;2024-02-04T04:06:13;9.70;99.90
46898;DHT22;32646;50.958;6.258;2024-02-04T04:08:39;9.70;99.90
46898;DHT22;32646;50.958;6.258;2024-02-04T04:11:08;9.70;99.90
46898;DHT22;32646;50.958;6.258;2024-02-04T04:13:35;9.70;99.90
46898;DHT22;32646;50.958;6.258;2024-02-04T04:16:05;9.70;99.90
46898;DHT22;32646;50.958;6.258;2024-02-04T04:18:33;9.70;99.90
46898;DHT22;32646;50.958;6.258;2024-02-04T04:20:59;9.70;99.90
46898;DHT22;32646;50.958;6.258;2024-02-04T04:23:26;9.70;99.90
46898;DHT22;32646;50.958;6.258;2024-02-04T04:25:53;9.70;99.90
46898;DHT22;32646;50.958;6.258;2024-02-04T04:28:19;9.70;99.90
46898;DHT22;32646;50.958;6.258;2024-02-04T04:30:46;9.70;99.90
46898;DHT22;32646;50.958;6.258;2024-02-04T04:33:13;9.70;99.90
46898;DHT22;32646;50.958;6.258;2024-02-04T04:35:40;9.70;99.90
46898;DHT22;32646;50.958;6.258;2024-02-04T04:38:06;9.70;99.90
46898;DHT22;32646;50.958;6.258;2024-02-04T04:40:33;9.70;99.90
46898;DHT22;32646;50.958;6.258;2024-02-04T04:42:59;9.70;99.90
46898;DHT22;32646;50.958;6.258;2024-02-04T04:45:26;9.70;99.90
46898;DHT22;32646;50.958;6.258;2024-02-04T04:47:53;9.60;99.90
46898;DHT22;32646;50.958;6.258;2024-02-04T04:50:21;9.60;99.90
46898;DHT22;32646;50.958;6.258;2024-02-04T04:52:48;9.60;99.90
46898;DHT22;32646;50.958;6.258;2024-02-04T04:55:15;9.60;99.90
46898;DHT22;32646;50.958;6.258;2024-02-04T04:57:41;9.60;99.90
46898;DHT22;32646;50.958;6.258;2024-02-04T05:00:09;9.60;99.90
46898;DHT22;32646;50.958;6.258;2024-02-04T05:02:36;9.60;99.90
46898;DHT22;32646;50.958;6.258;2024-02-04T05:05:03;9.70;99.90
46898;DHT22;32646;50.958;6.258;2024-02-04T05:07:30;9.60;99.90
46898;DHT22;32646;50.958;6.258;2024-02-04T05:09:56;9.60;99.90
46898;DHT22;32646;50.958;6.258;2024-02-04T05:12:23;9.70;99.90
46898;DHT22;32646;50.958;6.258;2024-02-04T05:14:50;9.70;99.90
46898;DHT22;32646;50.958;6.258;2024-02-04T05:17:16;9.70;99.90
46898;DHT22;32646;50.958;6.258;2024-02-04T05:19:43;9.70;99.90
46898;DHT22;32646;50.958;6.258;2024-02-04T05:22:10;9.60;99.90
46898;DHT22;32646;50.958;6.258;2024-02-04T05:24:37;9.60;99.90
46898;DHT22;32646;50.958;6.258;2024-02-04T05:27:04;9.60;99.90
46898;DHT22;32646;50.958;6.258;2024-02-04T05:29:31;9.60;99.90
46898;DHT22;32646;50.958;6.258;2024-02-04T05:31:58;9.60;99.90
46898;DHT22;32646;50.958;6.258;2024-02-04T05:34:24;9.60;99.90
46898;DHT22;32646;50.958;6.258;2024-02-04T05:36:51;9.60;99.90
46898;DHT22;32646;50.958;6.258;2024-02-04T05:39:18;9.70;99.90
46898;DHT22;32646;50.958;6.258;2024-02-04T05:41:44;9.70;99.90
46898;DHT22;32646;50.958;6.258;2024-02-04T05:44:11;9.70;99.90
46898;DHT22;32646;50.958;6.258;2024-02-04T05:46:38;9.70;99.90
46898;DHT22;32646;50.958;6.258;2024-02-04T05:49:05;9.70;99.90
46898;DHT22;32646;50.958;6.258;2024-02-04T05:51:32;9.70;99.90
46898;DHT22;32646;50.958;6.258;2024-02-04T05:54:03;9.70;99.90
46898;DHT22;32646;50.958;6.258;2024-02-04T05:56:30;9.70;99.90
46898;DHT22;32646;50.958;6.258;2024-02-04T05:58:56;9.70;99.90
46898;DHT22;32646;50.958;6.258;2024-02-04T06:01:23;9.70;99.90
46898;DHT22;32646;50.958;6.258;2024-02-04T06:03:50;9.70;99.90
46898;DHT22;32646;50.958;6.258;2024-02-04T06:06:17;9.70;99.90
46898;DHT22;32646;50.958;6.258;2024-02-04T06:08:44;9.70;99.90
46898;DHT22;32646;50.958;6.258;2024-02-04T06:11:11;9.70;99.90
46898;DHT22;32646;50.958;6.258;2024-02-04T06:13:42;9.70;99.90
46898;DHT22;32646;50.958;6.258;2024-02-04T06:16:09;9.70;99.90
46898;DHT22;32646;50.958;6.258;2024-02-04T06:18:36;9.60;99.90
46898;DHT22;32646;50.958;6.258;2024-02-04T06:21:03;9.60;99.90
46898;DHT22;32646;50.958;6.258;2024-02-04T06:23:30;9.60;99.90
46898;DHT22;32646;50.958;6.258;2024-02-04T06:25:57;9.60;99.90
46898;DHT22;32646;50.958;6.258;2024-02-04T06:28:24;9.60;99.90
46898;DHT22;32646;50.958;6.258;2024-02-04T06:30:51;9.60;99.90
46898;DHT22;32646;50.958;6.258;2024-02-04T06:33:17;9.60;99.90
46898;DHT22;32646;50.958;6.258;2024-02-04T06:35:44;9.60;99.90
46898;DHT22;32646;50.958;6.258;2024-02-04T06:38:11;9.60;99.90
46898;DHT22;32646;50.958;6.258;2024-02-04T06:40:37;9.60;99.90
46898;DHT22;32646;50.958;6.258;2024-02-04T06:43:04;9.60;99.90
46898;DHT22;32646;50.958;6.258;2024-02-04T06:45:30;9.60;99.90
46898;DHT22;32646;50.958;6.258;2024-02-04T06:47:57;9.60;99.90
46898;DHT22;32646;50.958;6.258;2024-02-04T06:50:24;9.60;99.90
46898;DHT22;32646;50.958;6.258;2024-02-04T06:52:50;9.60;99.90
46898;DHT22;32646;50.958;6.258;2024-02-04T06:55:17;9.60;99.90
46898;DHT22;32646;50.958;6.258;2024-02-04T06:57:44;9.60;99.90
46898;DHT22;32646;50.958;6.258;2024-02-04T07:00:11;9.60;99.90
46898;DHT22;32646;50.958;6.258;2024-02-04T07:02:37;9.60;99.90
46898;DHT22;32646;50.958;6.258;2024-02-04T07:05:04;9.60;99.90
46898;DHT22;32646;50.958;6.258;2024-02-04T07:07:31;9.60;99.90
46898;DHT22;32646;50.958;6.258;2024-02-04T07:10:00;9.60;99.90
46898;DHT22;32646;50.958;6.258;2024-02-04T07:12:26;9.60;99.90
46898;DHT22;32646;50.958;6.258;2024-02-04T07:14:53;9.50;99.90
46898;DHT22;32646;50.958;6.258;2024-02-04T07:17:19;9.50;99.90
46898;DHT22;32646;50.958;6.258;2024-02-04T07:19:46;9.60;99.90
46898;DHT22;32646;50.958;6.258;2024-02-04T07:22:13;9.60;99.90
46898;DHT22;32646;50.958;6.258;2024-02-04T07:24:39;9.60;99.90
46898;DHT22;32646;50.958;6.258;2024-02-04T07:27:06;9.60;99.90
46898;DHT22;32646;50.958;6.258;2024-02-04T07:29:33;9.60;99.90
46898;DHT22;32646;50.958;6.258;2024-02-04T07:31:59;9.60;99.90
46898;DHT22;32646;50.958;6.258;2024-02-04T07:34:26;9.60;99.90
46898;DHT22;32646;50.958;6.258;2024-02-04T07:36:52;9.60;99.90
46898;DHT22;32646;50.958;6.258;2024-02-04T07:39:19;9.70;99.90
46898;DHT22;32646;50.958;6.258;2024-02-04T07:41:46;9.70;99.90
46898;DHT22;32646;50.958;6.258;2024-02-04T07:44:13;9.70;99.90
46898;DHT22;32646;50.958;6.258;2024-02-04T07:46:39;9.70;99.90
46898;DHT22;32646;50.958;6.258;2024-02-04T07:49:06;9.70;99.90
46898;DHT22;32646;50.958;6.258;2024-02-04T07:51:33;9.70;99.90
46898;DHT22;32646;50.958;6.258;2024-02-04T07:53:59;9.60;99.90
46898;DHT22;32646;50.958;6.258;2024-02-04T07:56:26;9.70;99.90
46898;DHT22;32646;50.958;6.258;2024-02-04T07:58:52;9.70;99.90
46898;DHT22;32646;50.958;6.258;2024-02-04T08:01:19;9.70;99.90
46898;DHT22;32646;50.958;6.258;2024-02-04T08:03:46;9.70;99.90
46898;DHT22;32646;50.958;6.258;2024-02-04T08:06:12;9.70;99.90
46898;DHT22;32646;50.958;6.258;2024-02-04T08:08:39;9.70;99.90
46898;DHT22;32646;50.958;6.258;2024-02-04T08:11:05;9.70;99.90
46898;DHT22;32646;50.958;6.258;2024-02-04T08:13:32;9.70;99.90
46898;DHT22;32646;50.958;6.258;2024-02-04T08:19:27;9.70;99.90
46898;DHT22;32646;50.958;6.258;2024-02-04T08:21:54;9.70;99.90
46898;DHT22;32646;50.958;6.258;2024-02-04T08:24:21;9.70;99.90
46898;DHT22;32646;50.958;6.258;2024-02-04T08:26:47;9.70;99.90
46898;DHT22;32646;50.958;6.258;2024-02-04T08:29:14;9.70;99.90
46898;DHT22;32646;50.958;6.258;2024-02-04T08:31:41;9.70;99.90
46898;DHT22;32646;50.958;6.258;2024-02-04T08:34:07;9.80;99.90
46898;DHT22;32646;50.958;6.258;2024-02-04T08:36:34;9.80;99.90
46898;DHT22;32646;50.958;6.258;2024-02-04T08:39:01;9.70;99.90
46898;DHT22;32646;50.958;6.258;2024-02-04T08:41:27;9.80;99.90
46898;DHT22;32646;50.958;6.258;2024-02-04T08:43:54;9.80;99.90
46898;DHT22;32646;50.958;6.258;2024-02-04T08:46:20;9.80;99.90
46898;DHT22;32646;50.958;6.258;2024-02-04T08:48:47;9.80;99.90
46898;DHT22;32646;50.958;6.258;2024-02-04T08:51:14;9.80;99.90
46898;DHT22;32646;50.958;6.258;2024-02-04T08:53:41;9.80;99.90
46898;DHT22;32646;50.958;6.258;2024-02-04T08:56:08;9.80;99.90
46898;DHT22;32646;50.958;6.258;2024-02-04T08:58:35;9.80;99.90
46898;DHT22;32646;50.958;6.258;2024-02-04T09:01:03;9.80;99.90
46898;DHT22;32646;50.958;6.258;2024-02-04T09:03:30;9.80;99.90
46898;DHT22;32646;50.958;6.258;2024-02-04T09:05:59;9.80;99.90
46898;DHT22;32646;50.958;6.258;2024-02-04T09:08:26;9.80;99.90
46898;DHT22;32646;50.958;6.258;2024-02-04T09:10:53;9.80;99.90
46898;DHT22;32646;50.958;6.258;2024-02-04T09:13:19;9.80;99.90
46898;DHT22;32646;50.958;6.258;2024-02-04T09:15:46;9.80;99.90
46898;DHT22;32646;50.958;6.258;2024-02-04T09:18:13;9.80;99.90
46898;DHT22;32646;50.958;6.258;2024-02-04T09:20:39;9.80;99.90
46898;DHT22;32646;50.958;6.258;2024-02-04T09:23:06;9.80;99.90
46898;DHT22;32646;50.958;6.258;2024-02-04T09:25:33;9.90;99.90
46898;DHT22;32646;50.958;6.258;2024-02-04T09:28:00;9.90;99.90
46898;DHT22;32646;50.958;6.258;2024-02-04T09:30:27;9.90;99.90
46898;DHT22;32646;50.958;6.258;2024-02-04T09:32:54;10.00;99.90
46898;DHT22;32646;50.958;6.258;2024-02-04T09:35:21;10.00;99.90
46898;DHT22;32646;50.958;6.258;2024-02-04T09:37:48;10.00;99.90
46898;DHT22;32646;50.958;6.258;2024-02-04T09:40:14;10.00;99.90
46898;DHT22;32646;50.958;6.258;2024-02-04T09:42:41;10.00;99.90
46898;DHT22;32646;50.958;6.258;2024-02-04T09:45:09;10.00;99.90
46898;DHT22;32646;50.958;6.258;2024-02-04T09:47:36;10.00;99.90
46898;DHT22;32646;50.958;6.258;2024-02-04T09:50:03;10.10;99.90
46898;DHT22;32646;50.958;6.258;2024-02-04T09:52:33;10.10;99.90
46898;DHT22;32646;50.958;6.258;2024-02-04T09:55:01;10.10;99.90
46898;DHT22;32646;50.958;6.258;2024-02-04T09:57:33;10.20;99.90
46898;DHT22;32646;50.958;6.258;2024-02-04T10:00:02;10.20;99.90
46898;DHT22;32646;50.958;6.258;2024-02-04T10:02:29;10.20;99.90
46898;DHT22;32646;50.958;6.258;2024-02-04T10:04:57;10.30;99.90
46898;DHT22;32646;50.958;6.258;2024-02-04T10:07:24;10.30;99.90
46898;DHT22;32646;50.958;6.258;2024-02-04T10:09:51;10.40;99.90
46898;DHT22;32646;50.958;6.258;2024-02-04T10:12:18;10.40;99.90
46898;DHT22;32646;50.958;6.258;2024-02-04T10:14:44;10.50;99.90
46898;DHT22;32646;50.958;6.258;2024-02-04T10:17:15;10.50;99.90
46898;DHT22;32646;50.958;6.258;2024-02-04T10:19:42;10.50;99.90
46898;DHT22;32646;50.958;6.258;2024-02-04T10:22:09;10.60;99.90
46898;DHT22;32646;50.958;6.258;2024-02-04T10:24:36;10.60;99.90
46898;DHT22;32646;50.958;6.258;2024-02-04T10:27:04;10.60;99.90
46898;DHT22;32646;50.958;6.258;2024-02-04T10:29:30;10.60;99.90
46898;DHT22;32646;50.958;6.258;2024-02-04T10:31:57;10.60;99.90
46898;DHT22;32646;50.958;6.258;2024-02-04T10:34:37;10.50;99.90
46898;DHT22;32646;50.958;6.258;2024-02-04T10:37:04;10.40;99.90
46898;DHT22;32646;50.958;6.258;2024-02-04T10:39:31;10.40;99.90
46898;DHT22;32646;50.958;6.258;2024-02-04T10:42:02;10.30;99.90
46898;DHT22;32646;50.958;6.258;2024-02-04T10:44:29;10.40;99.90
46898;DHT22;32646;50.958;6.258;2024-02-04T10:46:58;10.40;99.90
46898;DHT22;32646;50.958;6.258;2024-02-04T10:49:28;10.40;99.90
46898;DHT22;32646;50.958;6.258;2024-02-04T10:51:56;10.20;99.90
46898;DHT22;32646;50.958;6.258;2024-02-04T10:54:26;10.30;99.90
46898;DHT22;32646;50.958;6.258;2024-02-04T10:56:56;10.20;99.90
46898;DHT22;32646;50.958;6.258;2024-02-04T10:59:25;10.20;99.90
46898;DHT22;32646;50.958;6.258;2024-02-04T11:01:53;10.20;99.90
46898;DHT22;32646;50.958;6.258;2024-02-04T11:04:21;10.20;99.90
46898;DHT22;32646;50.958;6.258;2024-02-04T11:06:49;10.30;99.90
46898;DHT22;32646;50.958;6.258;2024-02-04T11:09:17;10.30;99.90
46898;DHT22;32646;50.958;6.258;2024-02-04T11:11:45;10.30;99.90
46898;DHT22;32646;50.958;6.258;2024-02-04T11:14:15;10.40;99.90
46898;DHT22;32646;50.958;6.258;2024-02-04T11:25:57;10.60;99.90
46898;DHT22;32646;50.958;6.258;2024-02-04T11:28:26;10.70;99.90
46898;DHT22;32646;50.958;6.258;2024-02-04T11:30:54;10.70;99.90
46898;DHT22;32646;50.958;6.258;2024-02-04T11:33:22;10.70;99.90
46898;DHT22;32646;50.958;6.258;2024-02-04T11:36:02;10.60;99.90
46898;DHT22;32646;50.958;6.258;2024-02-04T11:38:36;10.60;99.90
46898;DHT22;32646;50.958;6.258;2024-02-04T11:41:04;10.50;99.90
46898;DHT22;32646;50.958;6.258;2024-02-04T11:43:34;10.50;99.90
46898;DHT22;32646;50.958;6.258;2024-02-04T11:46:04;10.40;99.90
46898;DHT22;32646;50.958;6.258;2024-02-04T11:48:35;10.40;99.90
46898;DHT22;32646;50.958;6.258;2024-02-04T11:51:04;10.40;99.90
46898;DHT22;32646;50.958;6.258;2024-02-04T11:53:32;10.30;99.90
46898;DHT22;32646;50.958;6.258;2024-02-04T11:56:01;10.30;99.90
46898;DHT22;32646;50.958;6.258;2024-02-04T11:58:29;10.30;99.90
46898;DHT22;32646;50.958;6.258;2024-02-04T12:00:56;10.30;99.90
46898;DHT22;32646;50.958;6.258;2024-02-04T12:03:30;10.30;99.90
46898;DHT22;32646;50.958;6.258;2024-02-04T12:05:57;10.20;99.90
46898;DHT22;32646;50.958;6.258;2024-02-04T12:08:26;10.20;99.90
46898;DHT22;32646;50.958;6.258;2024-02-04T12:10:53;10.20;99.90
46898;DHT22;32646;50.958;6.258;2024-02-04T12:13:20;10.20;99.90
46898;DHT22;32646;50.958;6.258;2024-02-04T12:15:47;10.10;99.90
46898;DHT22;32646;50.958;6.258;2024-02-04T12:18:14;10.10;99.90
46898;DHT22;32646;50.958;6.258;2024-02-04T12:20:41;10.10;99.90
46898;DHT22;32646;50.958;6.258;2024-02-04T12:23:08;10.10;99.90
46898;DHT22;32646;50.958;6.258;2024-02-04T12:25:35;10.10;99.90
46898;DHT22;32646;50.958;6.258;2024-02-04T12:28:05;10.10;99.90
46898;DHT22;32646;50.958;6.258;2024-02-04T12:30:32;10.10;99.90
46898;DHT22;32646;50.958;6.258;2024-02-04T12:33:01;10.10;99.90
46898;DHT22;32646;50.958;6.258;2024-02-04T12:35:28;10.10;99.90
46898;DHT22;32646;50.958;6.258;2024-02-04T12:37:57;10.10;99.90
46898;DHT22;32646;50.958;6.258;2024-02-04T12:40:25;10.10;99.90
46898;DHT22;32646;50.958;6.258;2024-02-04T12:42:56;10.10;99.90
46898;DHT22;32646;50.958;6.258;2024-02-04T12:45:26;10.10;99.90
46898;DHT22;32646;50.958;6.258;2024-02-04T12:47:54;10.10;99.90
46898;DHT22;32646;50.958;6.258;2024-02-04T12:50:22;10.00;99.90
46898;DHT22;32646;50.958;6.258;2024-02-04T12:53:04;10.10;99.90
46898;DHT22;32646;50.958;6.258;2024-02-04T12:55:32;10.10;99.90
46898;DHT22;32646;50.958;6.258;2024-02-04T12:58:03;10.10;99.90
46898;DHT22;32646;50.958;6.258;2024-02-04T13:00:30;10.10;99.90
46898;DHT22;32646;50.958;6.258;2024-02-04T13:02:58;10.10;99.90
46898;DHT22;32646;50.958;6.258;2024-02-04T13:05:28;10.10;99.90
46898;DHT22;32646;50.958;6.258;2024-02-04T13:07:56;10.10;99.90
46898;DHT22;32646;50.958;6.258;2024-02-04T13:10:26;10.10;99.90
46898;DHT22;32646;50.958;6.258;2024-02-04T13:13:07;10.10;99.90
46898;DHT22;32646;50.958;6.258;2024-02-04T13:15:39;10.10;99.90
46898;DHT22;32646;50.958;6.258;2024-02-04T13:18:07;10.10;99.90
46898;DHT22;32646;50.958;6.258;2024-02-04T13:20:35;10.10;99.90
46898;DHT22;32646;50.958;6.258;2024-02-04T13:23:01;10.10;99.90
46898;DHT22;32646;50.958;6.258;2024-02-04T13:25:28;10.10;99.90
46898;DHT22;32646;50.958;6.258;2024-02-04T13:27:55;10.20;99.90
46898;DHT22;32646;50.958;6.258;2024-02-04T13:30:22;10.20;99.90
46898;DHT22;32646;50.958;6.258;2024-02-04T13:32:49;10.30;99.90
46898;DHT22;32646;50.958;6.258;2024-02-04T13:35:17;10.20;99.90
46898;DHT22;32646;50.958;6.258;2024-02-04T13:37:47;10.20;99.90
46898;DHT22;32646;50.958;6.258;2024-02-04T13:40:15;10.30;99.90
46898;DHT22;32646;50.958;6.258;2024-02-04T13:42:43;10.20;99.90
46898;DHT22;32646;50.958;6.258;2024-02-04T13:45:13;10.20;99.90
46898;DHT22;32646;50.958;6.258;2024-02-04T13:47:40;10.30;99.90
46898;DHT22;32646;50.958;6.258;2024-02-04T13:50:08;10.30;99.90
46898;DHT22;32646;50.958;6.258;2024-02-04T13:52:36;10.30;99.90
46898;DHT22;32646;50.958;6.258;2024-02-04T13:55:03;10.30;99.90
46898;DHT22;32646;50.958;6.258;2024-02-04T13:57:31;10.30;99.90
46898;DHT22;32646;50.958;6.258;2024-02-04T13:59:58;10.30;99.90
46898;DHT22;32646;50.958;6.258;2024-02-04T14:02:25;10.30;99.90
46898;DHT22;32646;50.958;6.258;2024-02-04T14:04:52;10.30;99.90
46898;DHT22;32646;50.958;6.258;2024-02-04T14:07:19;10.30;99.90
46898;DHT22;32646;50.958;6.258;2024-02-04T14:09:45;10.30;99.90
46898;DHT22;32646;50.958;6.258;2024-02-04T14:12:12;10.30;99.90
46898;DHT22;32646;50.958;6.258;2024-02-04T14:14:39;10.30;99.90
46898;DHT22;32646;50.958;6.258;2024-02-04T14:17:06;10.30;99.90
46898;DHT22;32646;50.958;6.258;2024-02-04T14:19:33;10.30;99.90
46898;DHT22;32646;50.958;6.258;2024-02-04T14:21:59;10.30;99.90
46898;DHT22;32646;50.958;6.258;2024-02-04T14:24:29;10.30;99.90
46898;DHT22;32646;50.958;6.258;2024-02-04T14:26:57;10.30;99.90
46898;DHT22;32646;50.958;6.258;2024-02-04T14:29:23;10.30;99.90
46898;DHT22;32646;50.958;6.258;2024-02-04T14:31:50;10.30;99.90
46898;DHT22;32646;50.958;6.258;2024-02-04T14:34:17;10.20;99.90
46898;DHT22;32646;50.958;6.258;2024-02-04T14:36:44;10.30;99.90
46898;DHT22;32646;50.958;6.258;2024-02-04T14:39:10;10.20;99.90
46898;DHT22;32646;50.958;6.258;2024-02-04T14:41:37;10.20;99.90
46898;DHT22;32646;50.958;6.258;2024-02-04T14:44:04;10.20;99.90
46898;DHT22;32646;50.958;6.258;2024-02-04T14:46:31;10.20;99.90
46898;DHT22;32646;50.958;6.258;2024-02-04T14:48:58;10.20;99.90
46898;DHT22;32646;50.958;6.258;2024-02-04T14:51:24;10.20;99.90
46898;DHT22;32646;50.958;6.258;2024-02-04T14:53:54;10.20;99.90
46898;DHT22;32646;50.958;6.258;2024-02-04T14:56:20;10.20;99.90
46898;DHT22;32646;50.958;6.258;2024-02-04T14:58:47;10.20;99.90
46898;DHT22;32646;50.958;6.258;2024-02-04T15:01:13;10.20;99.90
46898;DHT22;32646;50.958;6.258;2024-02-04T15:03:43;10.20;99.90
46898;DHT22;32646;50.958;6.258;2024-02-04T15:06:09;10.20;99.90
46898;DHT22;32646;50.958;6.258;2024-02-04T15:08:38;10.20;99.90
46898;DHT22;32646;50.958;6.258;2024-02-04T15:11:05;10.20;99.90
46898;DHT22;32646;50.958;6.258;2024-02-04T15:13:35;10.20;99.90
46898;DHT22;32646;50.958;6.258;2024-02-04T15:16:02;10.20;99.90
46898;DHT22;32646;50.958;6.258;2024-02-04T15:18:29;10.20;99.90
46898;DHT22;32646;50.958;6.258;2024-02-04T15:20:56;10.20;99.90
46898;DHT22;32646;50.958;6.258;2024-02-04T15:23:26;10.20;99.90
46898;DHT22;32646;50.958;6.258;2024-02-04T15:25:53;10.20;99.90
46898;DHT22;32646;50.958;6.258;2024-02-04T15:28:20;10.20;99.90
46898;DHT22;32646;50.958;6.258;2024-02-04T15:30:47;10.10;99.90
46898;DHT22;32646;50.958;6.258;2024-02-04T15:33:14;10.10;99.90
46898;DHT22;32646;50.958;6.258;2024-02-04T15:35:43;10.10;99.90
46898;DHT22;32646;50.958;6.258;2024-02-04T15:38:09;10.20;99.90
46898;DHT22;32646;50.958;6.258;2024-02-04T15:40:37;10.20;99.90
46898;DHT22;32646;50.958;6.258;2024-02-04T15:43:04;10.20;99.90
46898;DHT22;32646;50.958;6.258;2024-02-04T15:45:31;10.20;99.90
46898;DHT22;32646;50.958;6.258;2024-02-04T15:48:03;10.20;99.90
46898;DHT22;32646;50.958;6.258;2024-02-04T15:50:31;10.20;99.90
46898;DHT22;32646;50.958;6.258;2024-02-04T15:53:02;10.20;99.90
46898;DHT22;32646;50.958;6.258;2024-02-04T15:55:29;10.30;99.90
46898;DHT22;32646;50.958;6.258;2024-02-04T15:57:59;10.30;99.90